createdAt,value
2018-07-02T00:01:34.409Z,4.3
2018-07-02T00:04:34.273Z,4.3
2018-07-02T00:07:39.855Z,4.3
2018-07-02T00:10:34.519Z,4.3
2018-07-02T00:13:34.313Z,4.3
2018-07-02T00:16:34.375Z,4.3
2018-07-02T00:19:34.463Z,4.3
2018-07-02T00:22:34.370Z,4.3
2018-07-02T00:25:34.572Z,4.3
2018-07-02T00:28:34.056Z,4.3
2018-07-02T00:31:34.347Z,4.3
2018-07-02T00:34:34.148Z,4.3
2018-07-02T00:37:34.132Z,4.3
2018-07-02T00:40:34.726Z,4.3
2018-07-02T00:43:34.448Z,4.3
2018-07-02T00:46:34.096Z,4.3
2018-07-02T00:49:34.278Z,4.3
2018-07-02T00:52:34.314Z,4.3
2018-07-02T00:55:34.231Z,4.3
2018-07-02T00:58:35.057Z,4.3
2018-07-02T01:01:34.185Z,4.3
2018-07-02T01:04:38.667Z,4.3
2018-07-02T01:07:34.815Z,4.3
2018-07-02T01:10:34.541Z,4.3
2018-07-02T01:13:34.098Z,4.3
2018-07-02T01:16:34.713Z,4.3
2018-07-02T01:19:34.299Z,4.3
2018-07-02T01:22:34.164Z,4.3
2018-07-02T01:25:34.627Z,4.3
2018-07-02T01:28:34.511Z,4.3
2018-07-02T01:31:34.186Z,4.3
2018-07-02T01:34:34.201Z,4.3
2018-07-02T01:37:34.206Z,4.3
2018-07-02T01:40:44.120Z,4.3
2018-07-02T01:43:34.301Z,4.3
2018-07-02T01:46:34.357Z,4.3
2018-07-02T01:49:34.246Z,4.3
2018-07-02T01:52:34.157Z,4.3
2018-07-02T01:55:39.176Z,4.3
2018-07-02T01:58:34.152Z,4.3
2018-07-02T02:01:34.479Z,4.3
2018-07-02T02:04:34.428Z,4.3
2018-07-02T02:07:38.745Z,4.3
2018-07-02T02:10:34.096Z,4.3
2018-07-02T02:13:34.129Z,4.3
2018-07-02T02:16:34.200Z,4.3
2018-07-02T02:19:39.796Z,4.3
2018-07-02T02:22:34.136Z,4.3
2018-07-02T02:25:34.191Z,4.3
2018-07-02T02:28:39.325Z,4.3
2018-07-02T02:31:34.223Z,4.3
2018-07-02T02:34:34.153Z,4.3
2018-07-02T02:37:34.065Z,4.3
2018-07-02T02:40:39.705Z,4.3
2018-07-02T02:43:34.368Z,4.3
2018-07-02T02:46:34.182Z,4.3
2018-07-02T02:49:34.108Z,4.3
2018-07-02T02:52:39.989Z,4.3
2018-07-02T02:55:34.051Z,4.3
2018-07-02T02:58:34.177Z,4.3
2018-07-02T03:01:34.262Z,4.3
2018-07-02T03:04:34.061Z,4.3
2018-07-02T03:07:34.115Z,4.3
2018-07-02T03:10:34.129Z,4.3
2018-07-02T03:13:34.162Z,4.3
2018-07-02T03:16:34.197Z,4.3
2018-07-02T03:19:34.127Z,4.3
2018-07-02T03:22:39.766Z,4.3
2018-07-02T03:25:34.473Z,4.3
2018-07-02T03:28:34.151Z,4.3
2018-07-02T03:31:34.095Z,4.3
2018-07-02T03:34:38.835Z,4.3
2018-07-02T03:37:34.125Z,4.3
2018-07-02T03:40:34.096Z,4.3
2018-07-02T03:43:34.234Z,4.3
2018-07-02T03:46:34.223Z,4.3
2018-07-02T03:49:50.990Z,4.3
2018-07-02T03:52:34.267Z,4.3
2018-07-02T03:55:34.269Z,4.3
2018-07-02T03:58:34.180Z,4.3
2018-07-02T04:01:34.335Z,4.3
2018-07-02T04:04:34.125Z,4.3
2018-07-02T04:07:34.029Z,4.3
2018-07-02T04:10:34.047Z,4.3
2018-07-02T04:13:34.145Z,4.3
2018-07-02T04:16:34.251Z,4.3
2018-07-02T04:19:39.163Z,4.3
2018-07-02T04:22:34.169Z,4.3
2018-07-02T04:25:39.097Z,4.3
2018-07-02T04:28:34.684Z,4.3
2018-07-02T04:31:34.181Z,4.3
2018-07-02T04:34:34.210Z,4.3
2018-07-02T04:37:34.008Z,4.3
2018-07-02T04:40:38.906Z,4.3
2018-07-02T04:43:39.048Z,4.3
2018-07-02T04:46:34.120Z,4.3
2018-07-02T04:49:39.776Z,4.3
2018-07-02T04:52:38.461Z,4.3
2018-07-02T04:55:38.346Z,4.3
2018-07-02T04:58:39.985Z,4.3
2018-07-02T05:01:33.927Z,4.3
2018-07-02T05:04:33.893Z,4.3
2018-07-02T05:07:34.269Z,4.3
2018-07-02T05:10:33.831Z,4.3
2018-07-02T05:13:33.859Z,4.3
2018-07-02T05:16:33.975Z,4.3
2018-07-02T05:19:33.768Z,4.3
2018-07-02T05:22:34.252Z,4.3
2018-07-02T05:25:33.913Z,4.3
2018-07-02T05:28:33.906Z,4.3
2018-07-02T05:31:33.985Z,4.3
2018-07-02T05:34:34.083Z,4.3
2018-07-02T05:37:33.868Z,4.3
2018-07-02T05:40:34.067Z,4.3
2018-07-02T05:43:34.006Z,4.3
2018-07-02T05:46:34.032Z,4.3
2018-07-02T05:49:33.953Z,4.3
2018-07-02T05:52:33.870Z,4.3
2018-07-02T05:55:33.948Z,4.3
2018-07-02T05:58:34.108Z,4.3
2018-07-02T06:01:33.875Z,4.4
2018-07-02T06:04:33.962Z,4.4
2018-07-02T06:07:34.106Z,4.4
2018-07-02T06:10:33.837Z,4.4
2018-07-02T06:13:34.011Z,4.4
2018-07-02T06:16:34.780Z,4.4
2018-07-02T06:19:33.962Z,4.4
2018-07-02T06:22:33.852Z,4.4
2018-07-02T06:25:33.773Z,4.4
2018-07-02T06:28:33.847Z,4.4
2018-07-02T06:31:33.842Z,4.4
2018-07-02T06:34:33.832Z,4.4
2018-07-02T06:37:33.930Z,4.4
2018-07-02T06:40:33.923Z,4.4
2018-07-02T06:43:33.857Z,4.4
2018-07-02T06:46:34.013Z,4.4
2018-07-02T06:49:33.936Z,4.4
2018-07-02T06:52:33.743Z,4.4
2018-07-02T06:55:33.838Z,4.4
2018-07-02T06:58:34.329Z,4.4
2018-07-02T07:01:33.874Z,4.3
2018-07-02T07:04:34.054Z,4.3
2018-07-02T07:07:33.945Z,4.3
2018-07-02T07:10:33.929Z,4.3
2018-07-02T07:13:33.904Z,4.3
2018-07-02T07:16:33.901Z,4.3
2018-07-02T07:19:34.047Z,4.3
2018-07-02T07:22:33.836Z,4.3
2018-07-02T07:25:33.780Z,4.3
2018-07-02T07:28:33.850Z,4.3
2018-07-02T07:31:33.758Z,4.3
2018-07-02T07:34:34.029Z,4.3
2018-07-02T07:37:34.439Z,4.3
2018-07-02T07:40:33.990Z,4.3
2018-07-02T07:43:33.827Z,4.3
2018-07-02T07:46:33.980Z,4.3
2018-07-02T07:49:33.818Z,4.3
2018-07-02T07:52:34.171Z,4.3
2018-07-02T07:55:34.000Z,4.3
2018-07-02T07:58:33.898Z,4.3
2018-07-02T08:01:33.901Z,4.3
2018-07-02T08:04:33.944Z,4.3
2018-07-02T08:07:33.980Z,4.3
2018-07-02T08:10:35.132Z,4.3
2018-07-02T08:13:33.944Z,4.3
2018-07-02T08:16:33.947Z,4.3
2018-07-02T08:19:33.958Z,4.3
2018-07-02T08:22:33.920Z,4.3
2018-07-02T08:25:33.994Z,4.3
2018-07-02T08:28:33.794Z,4.3
2018-07-02T08:31:33.960Z,4.3
2018-07-02T08:34:33.986Z,4.3
2018-07-02T08:37:33.774Z,4.3
2018-07-02T08:40:33.827Z,4.3
2018-07-02T08:43:33.855Z,4.3
2018-07-02T08:46:33.834Z,4.3
2018-07-02T08:49:33.969Z,4.3
2018-07-02T08:52:33.883Z,4.3
2018-07-02T08:55:34.011Z,4.3
2018-07-02T08:58:33.825Z,4.3
2018-07-02T09:01:33.806Z,4.3
2018-07-02T09:04:33.972Z,4.3
2018-07-02T09:07:33.886Z,4.3
2018-07-02T09:10:33.750Z,4.3
2018-07-02T09:13:34.129Z,4.3
2018-07-02T09:16:33.759Z,4.3
2018-07-02T09:19:34.001Z,4.3
2018-07-02T09:22:33.952Z,4.3
2018-07-02T09:25:33.849Z,4.3
2018-07-02T09:28:33.868Z,4.3
2018-07-02T09:31:33.934Z,4.3
2018-07-02T09:34:33.879Z,4.3
2018-07-02T09:37:33.901Z,4.3
2018-07-02T09:40:34.090Z,4.3
2018-07-02T09:43:33.814Z,4.3
2018-07-02T09:46:33.934Z,4.3
2018-07-02T09:49:34.503Z,4.3
2018-07-02T09:52:33.724Z,4.3
2018-07-02T09:55:33.868Z,4.3
2018-07-02T09:58:33.737Z,4.3
2018-07-02T10:01:33.911Z,4.1
2018-07-02T10:04:34.010Z,4.1
2018-07-02T10:07:33.804Z,4.1
2018-07-02T10:10:33.880Z,4.1
2018-07-02T10:13:33.822Z,4.1
2018-07-02T10:16:33.918Z,4.1
2018-07-02T10:19:33.723Z,4.1
2018-07-02T10:22:33.839Z,4.1
2018-07-02T10:25:33.756Z,4.1
2018-07-02T10:28:33.639Z,4.1
2018-07-02T10:31:33.874Z,4.1
2018-07-02T10:34:33.688Z,4.1
2018-07-02T10:37:33.910Z,4.1
2018-07-02T10:40:33.903Z,4.1
2018-07-02T10:43:33.665Z,4.1
2018-07-02T10:46:34.156Z,4.1
2018-07-02T10:49:33.897Z,4.1
2018-07-02T10:52:33.757Z,4.1
2018-07-02T10:55:34.409Z,4.1
2018-07-02T10:58:33.905Z,4.1
2018-07-02T11:01:33.729Z,3.9
2018-07-02T11:04:33.928Z,3.9
2018-07-02T11:07:33.809Z,3.9
2018-07-02T11:10:33.950Z,3.9
2018-07-02T11:13:33.857Z,3.9
2018-07-02T11:16:33.748Z,3.9
2018-07-02T11:19:33.887Z,3.9
2018-07-02T11:22:33.732Z,3.9
2018-07-02T11:25:33.885Z,3.9
2018-07-02T11:28:33.827Z,3.9
2018-07-02T11:31:34.127Z,3.9
2018-07-02T11:34:33.864Z,3.9
2018-07-02T11:37:34.743Z,3.9
2018-07-02T11:40:33.958Z,3.9
2018-07-02T11:43:33.782Z,3.9
2018-07-02T11:46:33.699Z,3.9
2018-07-02T11:49:34.217Z,3.9
2018-07-02T11:52:33.839Z,3.9
2018-07-02T11:55:33.859Z,3.9
2018-07-02T11:58:33.919Z,3.9
2018-07-02T12:01:34.114Z,3.5
2018-07-02T12:04:33.974Z,3.5
2018-07-02T12:07:33.940Z,3.5
2018-07-02T12:10:33.924Z,3.5
2018-07-02T12:13:33.916Z,3.5
2018-07-02T12:16:33.903Z,3.5
2018-07-02T12:19:33.852Z,3.5
2018-07-02T12:22:33.675Z,3.5
2018-07-02T12:25:33.767Z,3.5
2018-07-02T12:28:33.769Z,3.5
2018-07-02T12:31:34.121Z,3.5
2018-07-02T12:34:33.961Z,3.5
2018-07-02T12:37:33.857Z,3.5
2018-07-02T12:40:33.941Z,3.5
2018-07-02T12:43:33.953Z,3.5
2018-07-02T12:46:33.787Z,3.5
2018-07-02T12:49:33.926Z,3.5
2018-07-02T12:52:33.803Z,3.5
2018-07-02T12:55:33.877Z,3.5
2018-07-02T12:58:33.895Z,3.5
2018-07-02T13:01:34.022Z,3.1
2018-07-02T13:04:33.879Z,3.1
2018-07-02T13:07:33.748Z,3.1
2018-07-02T13:10:33.903Z,3.1
2018-07-02T13:13:34.774Z,3.1
2018-07-02T13:16:33.768Z,3.1
2018-07-02T13:19:33.941Z,3.1
2018-07-02T13:22:33.777Z,3.1
2018-07-02T13:25:33.784Z,3.1
2018-07-02T13:28:33.857Z,3.1
2018-07-02T13:31:33.800Z,3.1
2018-07-02T13:34:33.915Z,3.1
2018-07-02T13:37:34.232Z,3.1
2018-07-02T13:40:33.849Z,3.1
2018-07-02T13:43:33.746Z,3.1
2018-07-02T13:46:33.870Z,3.1
2018-07-02T13:49:34.737Z,3.1
2018-07-02T13:52:33.702Z,3.1
2018-07-02T13:55:33.730Z,3.1
2018-07-02T13:58:33.954Z,3.1
2018-07-02T14:01:34.107Z,2.9
2018-07-02T14:04:34.032Z,2.9
2018-07-02T14:07:33.907Z,2.9
2018-07-02T14:10:33.856Z,2.9
2018-07-02T14:13:33.991Z,2.9
2018-07-02T14:16:33.874Z,2.9
2018-07-02T14:19:33.855Z,2.9
2018-07-02T14:22:33.711Z,2.9
2018-07-02T14:25:33.737Z,2.9
2018-07-02T14:28:33.859Z,2.9
2018-07-02T14:31:33.662Z,2.9
2018-07-02T14:34:33.824Z,2.9
2018-07-02T14:37:33.921Z,2.9
2018-07-02T14:40:33.695Z,2.9
2018-07-02T14:43:34.020Z,2.9
2018-07-02T14:46:34.010Z,2.9
2018-07-02T14:49:33.704Z,2.9
2018-07-02T14:52:33.928Z,2.9
2018-07-02T14:55:33.992Z,2.9
2018-07-02T14:58:33.857Z,2.9
2018-07-02T15:01:33.975Z,2.8
2018-07-02T15:04:33.851Z,2.8
2018-07-02T15:07:34.129Z,2.8
2018-07-02T15:10:33.944Z,2.8
2018-07-02T15:13:33.858Z,2.8
2018-07-02T15:16:34.045Z,2.8
2018-07-02T15:19:33.880Z,2.8
2018-07-02T15:22:33.829Z,2.8
2018-07-02T15:25:33.791Z,2.8
2018-07-02T15:28:33.900Z,2.8
2018-07-02T15:31:33.599Z,2.8
2018-07-02T15:34:34.010Z,2.8
2018-07-02T15:37:33.727Z,2.8
2018-07-02T15:40:33.698Z,2.8
2018-07-02T15:43:33.692Z,2.8
2018-07-02T15:46:33.586Z,2.8
2018-07-02T15:49:33.798Z,2.8
2018-07-02T15:52:33.732Z,2.8
2018-07-02T15:55:33.611Z,2.8
2018-07-02T15:58:34.275Z,2.8
2018-07-02T16:01:34.052Z,2.5
2018-07-02T16:04:33.811Z,2.5
2018-07-02T16:07:33.918Z,2.5
2018-07-02T16:10:33.902Z,2.5
2018-07-02T16:13:34.262Z,2.5
2018-07-02T16:16:33.853Z,2.5
2018-07-02T16:19:33.729Z,2.5
2018-07-02T16:22:33.760Z,2.5
2018-07-02T16:25:33.821Z,2.5
2018-07-02T16:28:33.868Z,2.5
2018-07-02T16:31:34.029Z,2.5
2018-07-02T16:34:33.915Z,2.5
2018-07-02T16:37:33.649Z,2.5
2018-07-02T16:40:33.674Z,2.5
2018-07-02T16:43:33.700Z,2.5
2018-07-02T16:46:33.855Z,2.5
2018-07-02T16:49:33.578Z,2.5
2018-07-02T16:52:34.517Z,2.5
2018-07-02T16:55:33.785Z,2.5
2018-07-02T16:58:33.607Z,2.5
2018-07-02T17:01:33.803Z,2.3
2018-07-02T17:04:33.571Z,2.3
2018-07-02T17:07:33.753Z,2.3
2018-07-02T17:10:33.858Z,2.3
2018-07-02T17:13:33.822Z,2.3
2018-07-02T17:16:33.628Z,2.3
2018-07-02T17:19:33.879Z,2.3
2018-07-02T17:22:34.083Z,2.3
2018-07-02T17:25:33.701Z,2.3
2018-07-02T17:28:34.450Z,2.3
2018-07-02T17:31:34.114Z,2.3
2018-07-02T17:34:33.655Z,2.3
2018-07-02T17:37:33.844Z,2.3
2018-07-02T17:40:33.624Z,2.3
2018-07-02T17:43:33.804Z,2.3
2018-07-02T17:46:33.843Z,2.3
2018-07-02T17:49:33.842Z,2.3
2018-07-02T17:52:33.583Z,2.3
2018-07-02T17:55:33.714Z,2.3
2018-07-02T17:58:33.797Z,2.3
2018-07-02T18:01:43.699Z,2.1
2018-07-02T18:04:33.747Z,2.1
2018-07-02T18:07:33.645Z,2.1
2018-07-02T18:10:34.253Z,2.1
2018-07-02T18:13:33.815Z,2.1
2018-07-02T18:16:33.606Z,2.1
2018-07-02T18:19:33.598Z,2.1
2018-07-02T18:22:33.743Z,2.1
2018-07-02T18:25:33.679Z,2.1
2018-07-02T18:28:33.655Z,2.1
2018-07-02T18:31:33.601Z,2.1
2018-07-02T18:34:33.636Z,2.1
2018-07-02T18:37:33.656Z,2.1
2018-07-02T18:40:33.851Z,2.1
2018-07-02T18:43:33.555Z,2.1
2018-07-02T18:46:33.826Z,2.1
2018-07-02T18:49:33.952Z,2.1
2018-07-02T18:52:33.672Z,2.1
2018-07-02T18:55:34.271Z,2.1
2018-07-02T18:58:33.630Z,2.1
2018-07-02T19:01:33.847Z,2
2018-07-02T19:04:33.928Z,2
2018-07-02T19:07:33.741Z,2
2018-07-02T19:10:34.792Z,2
2018-07-02T19:13:33.906Z,2
2018-07-02T19:16:34.170Z,2
2018-07-02T19:19:33.753Z,2
2018-07-02T19:22:33.721Z,2
2018-07-02T19:25:33.685Z,2
2018-07-02T19:28:34.953Z,2
2018-07-02T19:31:33.698Z,2
2018-07-02T19:34:33.923Z,2
2018-07-02T19:37:33.705Z,2
2018-07-02T19:40:33.719Z,2
2018-07-02T19:43:33.839Z,2
2018-07-02T19:46:33.693Z,2
2018-07-02T19:49:33.766Z,2
2018-07-02T19:52:33.754Z,2
2018-07-02T19:55:33.617Z,2
2018-07-02T19:58:33.756Z,2
2018-07-02T20:01:33.570Z,2
2018-07-02T20:04:33.830Z,2
2018-07-02T20:07:33.823Z,2
2018-07-02T20:10:34.036Z,2
2018-07-02T20:13:34.844Z,2
2018-07-02T20:16:33.703Z,2
2018-07-02T20:19:33.892Z,2
2018-07-02T20:22:33.683Z,2
2018-07-02T20:25:33.617Z,2
2018-07-02T20:28:33.703Z,2
2018-07-02T20:31:33.900Z,2
2018-07-02T20:34:33.778Z,2
2018-07-02T20:37:33.811Z,2
2018-07-02T20:40:33.523Z,2
2018-07-02T20:43:33.618Z,2
2018-07-02T20:46:34.016Z,2
2018-07-02T20:49:33.846Z,2
2018-07-02T20:52:33.758Z,2
2018-07-02T20:55:33.850Z,2
2018-07-02T20:58:33.884Z,2
2018-07-02T21:01:33.871Z,2.1
2018-07-02T21:04:33.575Z,2.1
2018-07-02T21:07:33.673Z,2.1
2018-07-02T21:10:34.574Z,2.1
2018-07-02T21:13:33.855Z,2.1
2018-07-02T21:16:33.937Z,2.1
2018-07-02T21:19:34.044Z,2.1
2018-07-02T21:22:33.815Z,2.1
2018-07-02T21:25:33.650Z,2.1
2018-07-02T21:28:33.802Z,2.1
2018-07-02T21:31:33.771Z,2.1
2018-07-02T21:34:33.718Z,2.1
2018-07-02T21:37:33.734Z,2.1
2018-07-02T21:40:33.677Z,2.1
2018-07-02T21:43:33.622Z,2.1
2018-07-02T21:46:33.581Z,2.1
2018-07-02T21:49:33.804Z,2.1
2018-07-02T21:52:33.727Z,2.1
2018-07-02T21:55:33.578Z,2.1
2018-07-02T21:58:34.178Z,2.1
2018-07-02T22:01:33.639Z,2.2
2018-07-02T22:04:33.924Z,2.2
2018-07-02T22:07:33.679Z,2.2
2018-07-02T22:10:33.855Z,2.2
2018-07-02T22:13:33.765Z,2.2
2018-07-02T22:16:33.752Z,2.2
2018-07-02T22:19:33.697Z,2.2
2018-07-02T22:22:33.651Z,2.2
2018-07-02T22:25:34.530Z,2.2
2018-07-02T22:28:33.804Z,2.2
2018-07-02T22:31:33.677Z,2.2
2018-07-02T22:34:34.599Z,2.2
2018-07-02T22:37:33.606Z,2.2
2018-07-02T22:40:33.652Z,2.2
2018-07-02T22:43:34.095Z,2.2
2018-07-02T22:46:33.560Z,2.2
2018-07-02T22:49:34.074Z,2.2
2018-07-02T22:52:33.557Z,2.2
2018-07-02T22:55:33.866Z,2.2
2018-07-02T22:58:33.551Z,2.2
2018-07-02T23:01:34.089Z,2.2
2018-07-02T23:04:33.664Z,2.2
2018-07-02T23:07:33.822Z,2.2
2018-07-02T23:10:33.540Z,2.2
2018-07-02T23:13:33.732Z,2.2
2018-07-02T23:16:33.824Z,2.2
2018-07-02T23:19:33.515Z,2.2
2018-07-02T23:22:33.689Z,2.2
2018-07-02T23:25:33.855Z,2.2
2018-07-02T23:28:33.799Z,2.2
2018-07-02T23:31:33.741Z,2.2
2018-07-02T23:34:33.621Z,2.2
2018-07-02T23:37:33.699Z,2.2
2018-07-02T23:40:33.724Z,2.2
2018-07-02T23:43:33.657Z,2.2
2018-07-02T23:46:33.563Z,2.2
2018-07-02T23:49:33.643Z,2.2
2018-07-02T23:52:33.553Z,2.2
2018-07-02T23:55:33.526Z,2.2
2018-07-02T23:58:33.693Z,2.2
